createdAt,value
2023-05-02T00:00:37.932Z,7.10
2023-05-02T00:03:24.138Z,6.40
2023-05-02T00:06:00.968Z,6.20
2023-05-02T00:08:37.544Z,5.80
2023-05-02T00:11:14.550Z,6.20
2023-05-02T00:13:50.915Z,6.90
2023-05-02T00:16:27.439Z,6.80
2023-05-02T00:19:03.895Z,6.40
2023-05-02T00:21:40.421Z,6.30
2023-05-02T00:24:16.883Z,6.20
2023-05-02T00:26:53.519Z,6.10
2023-05-02T00:29:30.150Z,5.90
2023-05-02T00:32:06.972Z,6.50
2023-05-02T00:34:43.359Z,6.50
2023-05-02T00:37:20.153Z,6.10
2023-05-02T00:39:56.504Z,6.20
2023-05-02T00:42:36.197Z,6.60
2023-05-02T00:45:14.402Z,6.60
2023-05-02T00:47:50.773Z,6.40
2023-05-02T00:50:30.225Z,6.70
2023-05-02T00:53:08.283Z,6.80
2023-05-02T00:55:44.778Z,7.40
2023-05-02T00:58:22.910Z,7.00
2023-05-02T01:01:23.311Z,6.70
2023-05-02T01:04:23.114Z,6.90
2023-05-02T01:07:42.446Z,6.50
2023-05-02T01:10:37.491Z,6.20
2023-05-02T01:13:22.256Z,6.60
2023-05-02T01:16:04.717Z,6.40
2023-05-02T01:18:45.061Z,6.30
2023-05-02T01:21:21.558Z,6.40
2023-05-02T01:24:15.718Z,6.70
2023-05-02T01:27:24.196Z,6.60
2023-05-02T01:30:04.606Z,6.90
2023-05-02T01:32:45.072Z,6.60
2023-05-02T01:35:24.312Z,6.90
2023-05-02T01:38:03.808Z,7.10
2023-05-02T01:40:43.246Z,7.20
2023-05-02T01:43:22.688Z,6.60
2023-05-02T01:46:02.087Z,7.00
2023-05-02T01:48:40.206Z,6.80
2023-05-02T01:51:19.146Z,6.60
2023-05-02T01:53:57.709Z,6.90
2023-05-02T01:56:37.917Z,6.90
2023-05-02T01:59:19.833Z,6.60
2023-05-02T02:01:57.675Z,6.90
2023-05-02T02:04:36.276Z,7.00
2023-05-02T02:07:17.630Z,6.20
2023-05-02T02:09:54.406Z,7.40
2023-05-02T02:12:37.883Z,6.50
2023-05-02T02:15:26.478Z,6.70
2023-05-02T02:18:11.633Z,6.70
2023-05-02T02:20:51.999Z,6.80
2023-05-02T02:23:34.302Z,6.50
2023-05-02T02:26:11.699Z,6.30
2023-05-02T02:28:49.251Z,7.30
2023-05-02T02:31:26.397Z,7.20
2023-05-02T02:34:03.616Z,6.70
2023-05-02T02:36:49.337Z,6.40
2023-05-02T02:39:45.500Z,6.90
2023-05-02T02:42:35.289Z,6.50
2023-05-02T02:45:31.265Z,6.80
2023-05-02T02:48:28.071Z,6.90
2023-05-02T02:51:16.121Z,6.70
2023-05-02T02:54:25.933Z,7.00
2023-05-02T02:57:26.081Z,6.40
2023-05-02T03:00:13.267Z,6.70
2023-05-02T03:02:53.309Z,7.20
2023-05-02T03:05:30.529Z,7.20
2023-05-02T03:08:07.657Z,7.50
2023-05-02T03:10:44.050Z,6.70
2023-05-02T03:13:20.510Z,7.10
2023-05-02T03:16:42.832Z,7.30
2023-05-02T03:19:21.692Z,7.20
2023-05-02T03:21:58.556Z,7.10
2023-05-02T03:24:34.920Z,7.20
2023-05-02T03:27:12.391Z,7.20
2023-05-02T03:29:49.880Z,7.60
2023-05-02T03:32:26.947Z,7.80
2023-05-02T03:35:04.044Z,7.20
2023-05-02T03:37:41.415Z,7.40
2023-05-02T03:40:21.836Z,7.50
2023-05-02T03:42:58.571Z,7.90
2023-05-02T03:45:37.480Z,7.90
2023-05-02T03:48:13.932Z,8.10
2023-05-02T03:50:51.097Z,7.20
2023-05-02T03:53:28.030Z,7.20
2023-05-02T03:56:08.103Z,7.40
2023-05-02T03:58:51.030Z,7.30
2023-05-02T04:01:28.527Z,7.40
2023-05-02T04:04:06.532Z,7.30
2023-05-02T04:06:47.509Z,7.40
2023-05-02T04:09:25.536Z,7.30
2023-05-02T04:12:18.109Z,6.80
2023-05-02T04:14:57.715Z,7.10
2023-05-02T04:17:39.098Z,7.20
2023-05-02T04:20:18.533Z,7.60
2023-05-02T04:22:58.503Z,7.50
2023-05-02T04:25:35.743Z,7.10
2023-05-02T04:28:13.258Z,7.10
2023-05-02T04:30:50.027Z,7.40
2023-05-02T04:33:28.629Z,7.80
2023-05-02T04:36:05.716Z,7.20
2023-05-02T04:38:43.123Z,7.50
2023-05-02T04:41:21.626Z,7.10
2023-05-02T04:44:03.836Z,7.30
2023-05-02T04:46:40.580Z,8.10
2023-05-02T04:49:16.926Z,7.70
2023-05-02T04:51:53.781Z,8.30
2023-05-02T04:54:31.328Z,7.80
2023-05-02T04:57:08.251Z,7.70
2023-05-02T04:59:46.991Z,7.00
2023-05-02T05:02:23.448Z,7.50
2023-05-02T05:05:02.207Z,7.50
2023-05-02T05:07:38.665Z,6.90
2023-05-02T05:10:16.001Z,6.60
2023-05-02T05:12:55.167Z,6.80
2023-05-02T05:15:31.740Z,6.20
2023-05-02T05:18:10.257Z,6.30
2023-05-02T05:20:46.904Z,5.90
2023-05-02T05:23:23.468Z,6.50
2023-05-02T05:26:00.018Z,6.60
2023-05-02T05:28:36.612Z,6.90
2023-05-02T05:31:17.207Z,6.70
2023-05-02T05:33:56.640Z,6.40
2023-05-02T05:36:33.775Z,6.50
2023-05-02T05:39:12.150Z,6.60
2023-05-02T05:41:50.307Z,6.80
2023-05-02T05:44:27.078Z,7.00
2023-05-02T05:47:03.608Z,7.30
2023-05-02T05:49:40.142Z,6.20
2023-05-02T05:52:19.459Z,6.70
2023-05-02T05:54:58.245Z,6.30
2023-05-02T05:57:36.398Z,6.40
2023-05-02T06:00:18.158Z,5.80
2023-05-02T06:02:56.234Z,7.00
2023-05-02T06:08:13.671Z,5.90
2023-05-02T06:10:50.689Z,5.80
2023-05-02T06:13:27.382Z,6.00
2023-05-02T06:16:09.105Z,6.30
2023-05-02T06:18:45.388Z,7.00
2023-05-02T06:21:23.555Z,6.30
2023-05-02T06:24:00.038Z,5.50
2023-05-02T06:26:36.509Z,6.40
2023-05-02T06:29:12.852Z,6.20
2023-05-02T06:31:51.216Z,5.00
2023-05-02T06:34:27.619Z,4.40
2023-05-02T06:37:04.093Z,4.10
2023-05-02T06:39:42.747Z,3.90
2023-05-02T06:42:19.003Z,4.40
2023-05-02T06:44:56.110Z,4.40
2023-05-02T06:47:32.653Z,4.60
2023-05-02T06:50:11.746Z,4.40
2023-05-02T06:52:48.049Z,4.50
2023-05-02T06:55:24.479Z,4.10
2023-05-02T06:58:01.028Z,4.80
2023-05-02T07:00:37.467Z,4.50
2023-05-02T07:03:13.965Z,4.00
2023-05-02T07:05:50.353Z,4.40
2023-05-02T07:08:28.456Z,4.10
2023-05-02T07:11:05.091Z,3.60
2023-05-02T07:13:41.362Z,3.10
2023-05-02T07:16:17.854Z,2.60
2023-05-02T07:18:54.110Z,2.90
2023-05-02T07:21:30.806Z,2.40
2023-05-02T07:24:08.001Z,2.30
2023-05-02T07:26:44.208Z,2.50
2023-05-02T07:29:20.657Z,2.50
2023-05-02T07:31:57.123Z,2.50
2023-05-02T07:34:33.420Z,2.60
2023-05-02T07:37:09.819Z,2.00
2023-05-02T07:39:46.379Z,2.50
2023-05-02T07:42:22.662Z,2.30
2023-05-02T07:44:59.206Z,2.40
2023-05-02T07:47:38.928Z,2.30
2023-05-02T07:50:17.119Z,2.30
2023-05-02T07:52:53.545Z,2.30
2023-05-02T07:55:31.464Z,2.40
2023-05-02T07:58:08.067Z,3.00
2023-05-02T08:00:44.586Z,2.80
2023-05-02T08:03:21.221Z,2.70
2023-05-02T08:05:57.983Z,2.60
2023-05-02T08:08:34.404Z,2.50
2023-05-02T08:11:10.848Z,2.30
2023-05-02T08:13:47.374Z,2.30
2023-05-02T08:16:24.406Z,2.40
2023-05-02T08:19:00.774Z,2.50
2023-05-02T08:21:37.270Z,2.80
2023-05-02T08:24:13.857Z,5.70
2023-05-02T08:26:50.905Z,3.00
2023-05-02T08:29:28.036Z,3.00
2023-05-02T08:32:07.937Z,3.20
2023-05-02T08:34:45.170Z,3.00
2023-05-02T08:37:22.345Z,3.00
2023-05-02T08:39:59.762Z,3.00
2023-05-02T08:42:39.552Z,3.10
2023-05-02T08:45:31.036Z,3.10
2023-05-02T08:48:17.032Z,2.90
2023-05-02T08:50:56.454Z,3.30
2023-05-02T08:53:36.466Z,3.30
2023-05-02T08:56:16.956Z,3.10
2023-05-02T08:58:56.009Z,3.20
2023-05-02T09:01:46.533Z,3.20
2023-05-02T09:07:08.736Z,3.00
2023-05-02T09:09:47.244Z,3.10
2023-05-02T09:12:30.003Z,3.20
2023-05-02T09:15:24.183Z,5.20
2023-05-02T09:18:03.166Z,3.20
2023-05-02T09:20:46.538Z,3.10
2023-05-02T09:23:35.940Z,3.30
2023-05-02T09:26:28.836Z,3.20
2023-05-02T09:29:08.450Z,2.90
2023-05-02T09:31:56.365Z,2.70
2023-05-02T09:34:34.980Z,3.00
2023-05-02T09:37:13.765Z,3.10
2023-05-02T09:40:12.620Z,3.00
2023-05-02T09:42:49.879Z,2.90
2023-05-02T09:45:31.450Z,2.70
2023-05-02T09:48:10.110Z,2.90
2023-05-02T09:50:48.229Z,3.00
2023-05-02T09:53:30.429Z,3.00
2023-05-02T09:56:11.606Z,3.10
2023-05-02T09:58:51.372Z,2.80
2023-05-02T10:01:29.531Z,3.10
2023-05-02T10:04:11.453Z,3.00
2023-05-02T10:06:51.835Z,3.20
2023-05-02T10:09:32.815Z,2.80
2023-05-02T10:12:11.304Z,2.70
2023-05-02T10:15:00.155Z,2.80
2023-05-02T10:17:49.569Z,2.60
2023-05-02T10:20:37.355Z,2.50
2023-05-02T10:23:16.378Z,2.90
2023-05-02T10:28:33.424Z,2.80
2023-05-02T10:31:13.252Z,2.80
2023-05-02T10:33:57.361Z,2.60
2023-05-02T10:36:37.512Z,2.50
2023-05-02T10:39:17.305Z,2.90
2023-05-02T10:41:59.471Z,2.90
2023-05-02T10:44:46.321Z,2.70
2023-05-02T10:47:30.545Z,2.90
2023-05-02T10:50:10.476Z,2.70
2023-05-02T10:52:47.512Z,3.00
2023-05-02T10:55:26.989Z,2.90
2023-05-02T10:58:27.204Z,2.80
2023-05-02T11:01:42.240Z,2.80
2023-05-02T11:04:19.884Z,2.70
2023-05-02T11:07:23.320Z,2.80
2023-05-02T11:10:30.155Z,2.70
2023-05-02T11:13:07.098Z,2.90
2023-05-02T11:16:02.711Z,2.80
2023-05-02T11:19:05.390Z,2.80
2023-05-02T11:21:42.236Z,2.80
2023-05-02T11:24:44.904Z,2.90
2023-05-02T11:27:47.906Z,2.90
2023-05-02T11:30:43.946Z,2.70
2023-05-02T11:33:24.483Z,3.00
2023-05-02T11:36:01.335Z,3.20
2023-05-02T11:38:43.367Z,3.10
2023-05-02T11:41:20.190Z,2.80
2023-05-02T11:44:08.858Z,3.00
2023-05-02T11:46:48.115Z,2.90
2023-05-02T11:49:25.059Z,3.00
2023-05-02T11:52:04.457Z,3.50
2023-05-02T11:54:41.413Z,3.10
2023-05-02T11:57:18.115Z,3.70
2023-05-02T12:00:01.818Z,3.10
2023-05-02T12:02:48.970Z,4.50
2023-05-02T12:05:34.361Z,4.10
2023-05-02T12:08:21.958Z,3.30
2023-05-02T12:11:00.443Z,2.90
2023-05-02T12:13:45.540Z,11.30
2023-05-02T12:16:24.150Z,4.60
2023-05-02T12:19:01.725Z,3.30
2023-05-02T12:21:38.788Z,2.90
2023-05-02T12:24:15.539Z,3.20
2023-05-02T12:27:09.833Z,3.10
2023-05-02T12:29:50.290Z,3.00
2023-05-02T12:32:38.267Z,3.70
2023-05-02T12:35:27.653Z,3.00
2023-05-02T12:38:17.825Z,2.70
2023-05-02T12:40:58.652Z,3.10
2023-05-02T12:43:49.771Z,2.90
2023-05-02T12:49:12.648Z,2.90
2023-05-02T12:52:00.341Z,2.90
2023-05-02T12:54:37.429Z,3.10
2023-05-02T12:57:26.075Z,2.80
2023-05-02T13:00:03.535Z,3.10
2023-05-02T13:02:43.332Z,3.70
2023-05-02T13:05:24.953Z,3.30
2023-05-02T13:08:02.519Z,3.30
2023-05-02T13:10:39.722Z,3.00
2023-05-02T13:13:16.936Z,3.40
2023-05-02T13:15:54.199Z,3.90
2023-05-02T13:18:31.207Z,11.00
2023-05-02T13:21:08.043Z,8.30
2023-05-02T13:23:45.942Z,3.80
2023-05-02T13:26:23.313Z,3.60
2023-05-02T13:29:00.280Z,3.30
2023-05-02T13:31:39.640Z,2.90
2023-05-02T13:34:16.170Z,2.70
2023-05-02T13:36:52.742Z,2.70
2023-05-02T13:39:29.671Z,2.80
2023-05-02T13:42:06.775Z,3.30
2023-05-02T13:44:43.887Z,3.60
2023-05-02T13:47:21.652Z,3.60
2023-05-02T13:49:58.871Z,4.60
2023-05-02T13:52:35.651Z,6.00
2023-05-02T13:55:13.685Z,3.80
2023-05-02T13:57:51.015Z,2.90
2023-05-02T14:00:29.287Z,3.00
2023-05-02T14:03:07.185Z,3.60
2023-05-02T14:05:44.672Z,2.80
2023-05-02T14:08:21.642Z,2.70
2023-05-02T14:10:58.664Z,3.10
2023-05-02T14:13:35.063Z,3.90
2023-05-02T14:16:12.531Z,4.10
2023-05-02T14:18:50.166Z,4.00
2023-05-02T14:21:27.393Z,4.30
2023-05-02T14:24:04.406Z,4.30
2023-05-02T14:26:41.151Z,4.10
2023-05-02T14:29:18.603Z,3.90
2023-05-02T14:31:55.724Z,3.70
2023-05-02T14:34:32.866Z,3.40
2023-05-02T14:37:11.179Z,4.10
2023-05-02T14:39:50.829Z,3.50
2023-05-02T14:42:28.876Z,3.90
2023-05-02T14:45:06.654Z,3.90
2023-05-02T14:47:43.877Z,4.10
2023-05-02T14:50:21.818Z,4.60
2023-05-02T14:52:59.778Z,4.70
2023-05-02T14:55:41.789Z,4.60
2023-05-02T14:58:20.756Z,7.40
2023-05-02T15:01:00.807Z,3.20
2023-05-02T15:03:52.362Z,3.20
2023-05-02T15:06:37.353Z,2.50
2023-05-02T15:09:14.251Z,3.70
2023-05-02T15:11:54.025Z,3.40
2023-05-02T15:14:30.920Z,3.90
2023-05-02T15:17:08.068Z,3.30
2023-05-02T15:19:44.883Z,3.00
2023-05-02T15:22:24.293Z,3.00
2023-05-02T15:25:01.391Z,2.90
2023-05-02T15:27:40.218Z,3.50
2023-05-02T15:30:19.537Z,3.60
2023-05-02T15:32:59.553Z,3.80
2023-05-02T15:35:36.975Z,3.40
2023-05-02T15:38:14.297Z,3.80
2023-05-02T15:41:00.263Z,3.70
2023-05-02T15:43:37.477Z,3.40
2023-05-02T15:46:14.683Z,4.00
2023-05-02T15:48:51.539Z,4.30
2023-05-02T15:51:28.189Z,4.90
2023-05-02T15:54:07.037Z,4.10
2023-05-02T15:56:44.614Z,3.70
2023-05-02T15:59:21.569Z,5.60
2023-05-02T16:01:58.336Z,6.20
2023-05-02T16:04:35.114Z,19.80
2023-05-02T16:07:11.758Z,8.20
2023-05-02T16:09:48.361Z,3.80
2023-05-02T16:12:26.337Z,3.90
2023-05-02T16:15:03.964Z,8.60
2023-05-02T16:17:42.979Z,13.90
2023-05-02T16:20:21.202Z,10.60
2023-05-02T16:22:57.904Z,6.30
2023-05-02T16:25:36.124Z,5.00
2023-05-02T16:28:15.940Z,4.80
2023-05-02T16:30:53.505Z,4.50
2023-05-02T16:33:31.371Z,4.10
2023-05-02T16:36:11.725Z,4.20
2023-05-02T16:38:49.310Z,4.10
2023-05-02T16:41:26.866Z,4.20
2023-05-02T16:44:03.887Z,4.50
2023-05-02T16:46:41.546Z,6.30
2023-05-02T16:49:18.528Z,5.40
2023-05-02T16:51:56.191Z,5.10
2023-05-02T16:54:33.042Z,5.10
2023-05-02T16:57:10.896Z,5.30
2023-05-02T16:59:48.592Z,8.20
2023-05-02T17:02:25.866Z,9.70
2023-05-02T17:05:02.524Z,6.70
2023-05-02T17:07:40.131Z,6.20
2023-05-02T17:10:19.515Z,6.40
2023-05-02T17:13:01.900Z,6.10
2023-05-02T17:15:42.819Z,14.90
2023-05-02T17:18:19.748Z,11.80
2023-05-02T17:20:58.077Z,6.40
2023-05-02T17:23:37.414Z,5.90
2023-05-02T17:26:15.698Z,6.30
2023-05-02T17:28:53.755Z,6.40
2023-05-02T17:31:30.928Z,6.90
2023-05-02T17:34:08.800Z,6.90
2023-05-02T17:36:46.453Z,7.00
2023-05-02T17:39:25.466Z,7.30
2023-05-02T17:42:02.741Z,7.30
2023-05-02T17:44:42.375Z,7.80
2023-05-02T17:47:20.180Z,7.60
2023-05-02T17:50:00.164Z,8.50
2023-05-02T17:52:38.948Z,8.20
2023-05-02T17:55:19.805Z,8.30
